Time;durP1;ratioP1;P1;durP2;ratioP2;P2;SDS_P1;SDS_P2;PMS_P1;PMS_P2;Temp;Humidity;BMP_temperature;BMP_pressure;BME280_temperature;BME280_humidity;BME280_pressure;Samples;Min_cycle;Max_cycle;Signal;HPM_P1;HPM_P2
2023/06/25 00:01:01;;;;;;;17.40;10.80;;;;;;;14.65;89.10;97623.82;108041;1236;97059;-80
2023/06/25 00:03:47;;;;;;;15.60;10.30;;;;;;;14.67;89.13;97625.81;108069;1238;99865;-81
2023/06/25 00:06:14;;;;;;;11.80;10.40;;;;;;;14.67;89.13;97623.34;107956;1242;97437;-80
2023/06/25 00:08:40;;;;;;;13.40;10.60;;;;;;;14.68;89.16;97616.34;107917;1237;97680;-81
2023/06/25 00:11:06;;;;;;;12.90;10.30;;;;;;;14.69;89.19;97618.60;108034;1234;96765;-80
2023/06/25 00:13:33;;;;;;;17.40;10.90;;;;;;;14.70;89.26;97620.46;107525;1244;101986;-80
2023/06/25 00:15:59;;;;;;;14.40;10.40;;;;;;;14.71;89.27;97619.04;107540;1237;97470;-69
2023/06/25 00:18:26;;;;;;;14.30;11.50;;;;;;;14.70;89.24;97617.71;107590;1240;96869;-69
2023/06/25 00:20:54;;;;;;;17.50;10.60;;;;;;;14.71;89.28;97618.02;107565;1242;96964;-69
2023/06/25 00:23:20;;;;;;;11.30;9.10;;;;;;;14.71;89.26;97618.89;107725;1241;97870;-71
2023/06/25 00:25:46;;;;;;;13.90;8.50;;;;;;;14.72;89.05;97616.95;107709;1240;96609;-71
2023/06/25 00:28:13;;;;;;;11.80;9.20;;;;;;;14.73;88.98;97616.47;107608;1241;99528;-70
2023/06/25 00:30:39;;;;;;;10.80;8.70;;;;;;;14.73;89.02;97616.27;107549;1238;96979;-69
2023/06/25 00:33:06;;;;;;;10.00;8.10;;;;;;;14.73;89.24;97614.09;107627;1241;97379;-69
2023/06/25 00:35:50;;;;;;;12.80;8.30;;;;;;;14.73;89.21;97614.89;107670;1244;97300;-69
2023/06/25 00:38:17;;;;;;;14.70;8.90;;;;;;;14.73;89.28;97613.65;107614;1243;100032;-69
2023/06/25 00:40:44;;;;;;;11.00;8.20;;;;;;;14.72;89.17;97610.27;107621;1242;96615;-70
2023/06/25 00:43:10;;;;;;;13.20;8.10;;;;;;;14.70;89.03;97609.09;107594;1241;97040;-69
2023/06/25 00:45:37;;;;;;;12.70;8.30;;;;;;;14.67;89.05;97611.42;107993;1237;96651;-70
2023/06/25 00:48:03;;;;;;;13.80;7.60;;;;;;;14.64;88.95;97612.60;108013;1235;96555;-69
2023/06/25 00:50:30;;;;;;;10.60;8.10;;;;;;;14.61;89.07;97610.73;108171;1236;96579;-70
2023/06/25 00:52:57;;;;;;;10.00;7.70;;;;;;;14.60;89.16;97610.21;108233;1236;96647;-69
2023/06/25 00:55:25;;;;;;;10.50;8.30;;;;;;;14.57;89.09;97607.70;108152;1244;97781;-70
2023/06/25 00:57:52;;;;;;;9.40;8.00;;;;;;;14.56;88.99;97614.90;107982;1235;96984;-69
2023/06/25 01:00:19;;;;;;;10.20;7.90;;;;;;;14.52;88.91;97618.05;108121;1236;97065;-70
2023/06/25 01:03:03;;;;;;;11.90;8.50;;;;;;;14.49;88.90;97612.46;108137;1237;96618;-69
2023/06/25 01:05:43;;;;;;;12.90;8.00;;;;;;;14.46;88.92;97613.09;108145;1236;97473;-70
2023/06/25 01:08:11;;;;;;;13.10;8.00;;;;;;;14.41;88.96;97615.89;108173;1236;102398;-69
2023/06/25 01:10:38;;;;;;;10.60;8.70;;;;;;;14.37;89.08;97612.84;108077;1236;99977;-69
2023/06/25 01:13:05;;;;;;;13.90;9.00;;;;;;;14.34;89.20;97609.72;107741;1232;98880;-71
2023/06/25 01:15:32;;;;;;;18.80;10.50;;;;;;;14.31;89.41;97603.06;107896;1243;97454;-72
2023/06/25 01:17:59;;;;;;;11.40;9.40;;;;;;;14.29;89.24;97601.46;108210;1237;97095;-72
2023/06/25 01:20:26;;;;;;;12.40;9.50;;;;;;;14.27;89.31;97602.91;108298;1236;97793;-72
2023/06/25 01:22:56;;;;;;;11.30;9.10;;;;;;;14.26;89.27;97598.50;108233;1238;96545;-71
2023/06/25 01:25:23;;;;;;;11.40;8.90;;;;;;;14.23;89.36;97592.63;107632;1242;108779;-72
2023/06/25 01:27:50;;;;;;;11.60;9.20;;;;;;;14.21;89.30;97596.20;108297;1237;97845;-73
2023/06/25 01:30:18;;;;;;;15.00;9.20;;;;;;;14.20;89.41;97595.29;108115;1236;97240;-73
2023/06/25 01:32:45;;;;;;;12.20;8.70;;;;;;;14.17;89.40;97593.86;108163;1234;97767;-89
2023/06/25 01:35:13;;;;;;;10.90;8.90;;;;;;;14.16;89.25;97595.01;108205;1246;96647;-89
2023/06/25 01:37:39;;;;;;;14.30;8.90;;;;;;;14.16;89.32;97594.04;107978;1237;96774;-87
2023/06/25 01:40:07;;;;;;;12.50;8.60;;;;;;;14.14;89.20;97596.06;108208;1236;97492;-88
2023/06/25 01:42:34;;;;;;;12.00;8.40;;;;;;;14.12;89.22;97593.69;108050;1236;97450;-88
2023/06/25 01:45:01;;;;;;;9.00;8.10;;;;;;;14.09;89.12;97589.42;107649;1248;97396;-88
2023/06/25 01:47:28;;;;;;;9.90;8.70;;;;;;;14.06;89.23;97589.16;107914;1239;96868;-82
2023/06/25 01:49:54;;;;;;;11.00;8.90;;;;;;;14.04;89.34;97588.02;108145;1233;97484;-82
2023/06/25 01:52:21;;;;;;;10.70;8.30;;;;;;;14.04;89.52;97589.48;107800;1233;98504;-82
2023/06/25 01:54:48;;;;;;;10.80;8.50;;;;;;;14.05;89.72;97587.13;108081;1238;96581;-82
2023/06/25 01:57:14;;;;;;;12.40;8.40;;;;;;;14.06;89.86;97588.25;107982;1237;96552;-82
2023/06/25 01:59:40;;;;;;;13.30;9.20;;;;;;;14.08;89.64;97591.32;108107;1234;97441;-80
2023/06/25 02:02:07;;;;;;;14.80;9.90;;;;;;;14.08;89.80;97586.02;108110;1233;97096;-83
2023/06/25 02:04:33;;;;;;;15.70;9.90;;;;;;;14.09;89.85;97582.20;108026;1238;97091;-83
2023/06/25 02:07:00;;;;;;;11.70;9.00;;;;;;;14.11;89.97;97583.02;107971;1236;96555;-83
2023/06/25 02:09:26;;;;;;;13.00;8.60;;;;;;;14.11;89.82;97576.12;108012;1238;97562;-84
2023/06/25 02:11:52;;;;;;;14.40;9.10;;;;;;;14.13;89.96;97578.77;108009;1239;97761;-83
2023/06/25 02:14:19;;;;;;;14.50;9.40;;;;;;;14.15;89.94;97579.14;107999;1245;96567;-82
2023/06/25 02:16:45;;;;;;;10.30;9.20;;;;;;;14.16;89.98;97577.05;108024;1236;96662;-80
2023/06/25 02:19:11;;;;;;;13.50;10.10;;;;;;;14.19;89.96;97583.48;108136;1237;97696;-81
2023/06/25 02:21:38;;;;;;;16.90;9.80;;;;;;;14.20;90.05;97584.34;108074;1237;97309;-82
2023/06/25 02:24:04;;;;;;;11.70;9.40;;;;;;;14.21;89.95;97584.80;108126;1237;97814;-81
2023/06/25 02:26:31;;;;;;;15.60;10.50;;;;;;;14.21;90.01;97581.91;108042;1234;96676;-81
2023/06/25 02:28:57;;;;;;;14.00;11.10;;;;;;;14.23;90.05;97580.47;108193;1246;97155;-82
2023/06/25 02:31:23;;;;;;;14.30;9.90;;;;;;;14.25;89.80;97582.79;108023;1237;97130;-81
2023/06/25 02:33:50;;;;;;;11.90;9.40;;;;;;;14.26;89.75;97582.49;107999;1234;96614;-84
2023/06/25 02:36:16;;;;;;;14.60;9.50;;;;;;;14.25;89.86;97583.72;108055;1233;96577;-84
2023/06/25 02:38:42;;;;;;;16.70;9.50;;;;;;;14.27;89.85;97583.90;107970;1234;96510;-83
2023/06/25 02:41:09;;;;;;;13.70;10.20;;;;;;;14.26;90.03;97579.98;107966;1237;97003;-84
2023/06/25 02:43:35;;;;;;;12.10;9.60;;;;;;;14.28;90.02;97582.59;108155;1233;96638;-85
2023/06/25 02:46:01;;;;;;;10.80;9.40;;;;;;;14.28;89.99;97580.77;108016;1238;97782;-84
2023/06/25 02:48:28;;;;;;;10.80;9.00;;;;;;;14.30;89.84;97580.44;108147;1246;96569;-82
2023/06/25 02:50:55;;;;;;;11.80;9.00;;;;;;;14.30;89.88;97580.91;108012;1246;96657;-82
2023/06/25 02:53:21;;;;;;;12.70;9.70;;;;;;;14.29;89.84;97580.50;108049;1235;97804;-81
2023/06/25 02:55:47;;;;;;;11.30;9.80;;;;;;;14.26;89.84;97579.45;108036;1237;97797;-81
2023/06/25 02:58:13;;;;;;;13.10;9.60;;;;;;;14.28;89.83;97585.31;107995;1245;96545;-81
2023/06/25 03:00:40;;;;;;;15.00;9.90;;;;;;;14.28;89.88;97583.14;108039;1236;98377;-83
2023/06/25 03:03:06;;;;;;;11.20;9.20;;;;;;;14.27;89.82;97578.27;108069;1244;96534;-81
2023/06/25 03:05:33;;;;;;;14.70;9.50;;;;;;;14.26;89.88;97574.45;107946;1238;96774;-81
2023/06/25 03:07:59;;;;;;;12.20;10.20;;;;;;;14.25;89.87;97578.29;108010;1248;97416;-81
2023/06/25 03:10:30;;;;;;;15.40;10.10;;;;;;;14.23;89.70;97577.04;108000;1238;96996;-81
2023/06/25 03:12:57;;;;;;;16.10;10.70;;;;;;;14.19;89.84;97579.64;107728;1240;101903;-81
2023/06/25 03:15:23;;;;;;;12.10;9.70;;;;;;;14.18;90.12;97579.44;107996;1248;96557;-81
2023/06/25 03:17:50;;;;;;;14.40;9.60;;;;;;;14.19;90.36;97581.39;108033;1235;97348;-88
2023/06/25 03:20:16;;;;;;;12.60;10.00;;;;;;;14.20;90.28;97583.96;107634;1240;96593;-89
2023/06/25 03:22:43;;;;;;;12.10;9.90;;;;;;;14.21;90.18;97582.95;108070;1235;96820;-89
2023/06/25 03:25:09;;;;;;;12.80;10.30;;;;;;;14.23;90.22;97579.43;107983;1238;101143;-89
2023/06/25 03:27:36;;;;;;;14.80;11.50;;;;;;;14.24;90.36;97577.95;108047;1232;96667;-89
2023/06/25 03:30:04;;;;;;;14.60;10.80;;;;;;;14.26;90.32;97577.39;107750;1240;96712;-89
2023/06/25 03:32:30;;;;;;;12.60;11.00;;;;;;;14.28;90.33;97573.41;108028;1236;96538;-81
2023/06/25 03:34:57;;;;;;;18.80;12.10;;;;;;;14.31;90.05;97570.61;107953;1246;96581;-85
2023/06/25 03:37:24;;;;;;;16.00;12.10;;;;;;;14.31;89.94;97570.23;108213;1240;96786;-79
2023/06/25 03:39:50;;;;;;;13.40;10.40;;;;;;;14.30;90.08;97571.13;107574;1238;97290;-79
2023/06/25 03:42:16;;;;;;;13.20;11.50;;;;;;;14.29;90.04;97574.06;108197;1234;96539;-80
2023/06/25 03:44:50;;;;;;;13.80;11.10;;;;;;;14.26;90.06;97566.79;108048;1247;96534;-80
2023/06/25 03:47:16;;;;;;;16.80;11.90;;;;;;;14.26;90.07;97567.88;107471;1234;100182;-87
2023/06/25 03:49:43;;;;;;;16.10;11.90;;;;;;;14.27;90.24;97570.29;108054;1238;97808;-84
2023/06/25 03:52:10;;;;;;;15.00;11.60;;;;;;;14.26;90.19;97568.96;107682;1248;96625;-82
2023/06/25 03:54:36;;;;;;;20.00;11.80;;;;;;;14.28;90.21;97573.31;108195;1237;96644;-84
2023/06/25 03:57:03;;;;;;;17.30;12.40;;;;;;;14.30;90.34;97570.27;107989;1236;100230;-84
2023/06/25 03:59:29;;;;;;;19.20;13.10;;;;;;;14.35;90.23;97572.86;108028;1243;96533;-84
2023/06/25 04:01:55;;;;;;;19.20;13.30;;;;;;;14.37;90.16;97574.43;108121;1236;96621;-74
2023/06/25 04:04:22;;;;;;;21.70;13.70;;;;;;;14.40;90.01;97575.39;108063;1234;96847;-74
2023/06/25 04:06:48;;;;;;;15.00;12.40;;;;;;;14.42;89.73;97572.52;108084;1237;101298;-74
2023/06/25 04:09:15;;;;;;;13.50;11.40;;;;;;;14.43;89.66;97571.56;108022;1248;96593;-74
2023/06/25 04:11:41;;;;;;;12.70;10.70;;;;;;;14.44;89.59;97572.09;108075;1232;96531;-74
2023/06/25 04:14:07;;;;;;;13.50;10.20;;;;;;;14.46;89.55;97566.76;108098;1236;96576;-74
2023/06/25 04:16:34;;;;;;;13.30;11.10;;;;;;;14.47;89.42;97565.27;107983;1236;100241;-80
2023/06/25 04:19:00;;;;;;;13.90;10.70;;;;;;;14.49;89.22;97565.15;108082;1246;97427;-86
2023/06/25 04:21:26;;;;;;;15.70;11.80;;;;;;;14.51;89.29;97561.98;108025;1236;97664;-83
2023/06/25 04:23:53;;;;;;;13.90;10.50;;;;;;;14.56;89.14;97564.84;108078;1236;96533;-80
2023/06/25 04:26:19;;;;;;;15.00;11.30;;;;;;;14.60;89.20;97565.71;107960;1240;101567;-81
2023/06/25 04:28:46;;;;;;;13.30;10.90;;;;;;;14.62;89.14;97564.23;107947;1233;96548;-80
2023/06/25 04:31:12;;;;;;;15.10;11.80;;;;;;;14.63;89.36;97566.61;107951;1236;96636;-83
2023/06/25 04:33:41;;;;;;;11.70;10.20;;;;;;;14.66;89.33;97561.63;108094;1236;97447;-84
2023/06/25 04:36:10;;;;;;;13.20;9.70;;;;;;;14.66;89.09;97563.37;108246;1238;101203;-84
2023/06/25 04:38:36;;;;;;;10.60;9.30;;;;;;;14.65;88.97;97565.52;108095;1236;99916;-83
2023/06/25 04:41:02;;;;;;;10.80;9.10;;;;;;;14.63;88.77;97566.60;108176;1234;96644;-83
2023/06/25 04:43:29;;;;;;;13.80;9.80;;;;;;;14.61;88.91;97563.88;108054;1236;96447;-83
2023/06/25 04:45:55;;;;;;;15.40;11.50;;;;;;;14.66;89.06;97566.79;108074;1236;97776;-85
2023/06/25 04:48:21;;;;;;;13.80;11.30;;;;;;;14.70;88.98;97567.71;108049;1236;98455;-86
2023/06/25 04:50:48;;;;;;;15.60;12.20;;;;;;;14.72;88.86;97562.38;108330;1236;97456;-86
2023/06/25 04:53:14;;;;;;;16.60;12.30;;;;;;;14.73;88.98;97563.81;108027;1235;97200;-86
2023/06/25 04:55:41;;;;;;;16.40;11.10;;;;;;;14.71;88.87;97562.80;108024;1246;97126;-86
2023/06/25 04:58:07;;;;;;;14.10;11.10;;;;;;;14.69;88.68;97561.08;107936;1236;99355;-86
2023/06/25 05:00:33;;;;;;;15.50;11.40;;;;;;;14.71;88.99;97559.59;107979;1248;96643;-82
2023/06/25 05:03:00;;;;;;;12.60;11.10;;;;;;;14.75;88.93;97561.85;108005;1236;96531;-81
2023/06/25 05:05:26;;;;;;;17.30;11.80;;;;;;;14.83;89.05;97558.40;108141;1235;97798;-84
2023/06/25 05:07:53;;;;;;;14.70;12.00;;;;;;;14.90;89.01;97558.80;107939;1236;99826;-83
2023/06/25 05:10:20;;;;;;;15.40;11.70;;;;;;;14.99;89.22;97558.69;108057;1244;97116;-82
2023/06/25 05:12:47;;;;;;;16.30;12.50;;;;;;;15.04;88.99;97558.58;107535;1240;97410;-83
2023/06/25 05:15:14;;;;;;;17.00;12.80;;;;;;;15.10;88.70;97558.23;108133;1240;96589;-82
2023/06/25 05:17:41;;;;;;;17.20;12.60;;;;;;;15.14;88.65;97555.95;107901;1239;97081;-89
2023/06/25 05:20:08;;;;;;;14.80;12.30;;;;;;;15.20;88.59;97556.07;108219;1248;96561;-89
2023/06/25 05:22:34;;;;;;;17.50;12.00;;;;;;;15.25;88.45;97555.80;107733;1232;97178;-89
2023/06/25 05:25:01;;;;;;;17.10;12.60;;;;;;;15.28;88.25;97560.30;108174;1245;97769;-90
2023/06/25 05:27:27;;;;;;;16.90;12.80;;;;;;;15.31;88.20;97557.95;108024;1236;96477;-90
2023/06/25 05:29:54;;;;;;;14.10;12.00;;;;;;;15.33;87.97;97555.40;108076;1238;96596;-89
2023/06/25 05:32:20;;;;;;;16.30;12.60;;;;;;;15.35;88.04;97557.82;108127;1241;97184;-87
2023/06/25 05:34:46;;;;;;;15.40;11.80;;;;;;;15.36;87.85;97555.88;108006;1233;97341;-87
2023/06/25 05:37:12;;;;;;;16.50;13.20;;;;;;;15.36;87.68;97551.69;108111;1248;96547;-88
2023/06/25 05:39:39;;;;;;;13.40;11.80;;;;;;;15.35;87.38;97549.98;107904;1240;96689;-87
2023/06/25 05:42:05;;;;;;;16.30;12.20;;;;;;;15.36;87.42;97547.89;108169;1236;97051;-89
2023/06/25 05:44:32;;;;;;;14.60;12.20;;;;;;;15.36;87.28;97548.59;108003;1235;97084;-89
2023/06/25 05:46:58;;;;;;;15.50;12.40;;;;;;;15.36;87.27;97548.38;108063;1240;97338;-85
2023/06/25 05:49:25;;;;;;;18.70;12.50;;;;;;;15.37;87.29;97547.82;107714;1246;96719;-85
2023/06/25 05:51:51;;;;;;;16.50;12.20;;;;;;;15.39;87.08;97541.02;108040;1239;97469;-86
2023/06/25 05:54:17;;;;;;;14.30;12.70;;;;;;;15.44;87.19;97537.21;108106;1236;97658;-86
2023/06/25 05:56:44;;;;;;;16.90;12.10;;;;;;;15.46;87.35;97541.28;108141;1246;96631;-87
2023/06/25 05:59:10;;;;;;;15.70;12.50;;;;;;;15.48;87.28;97545.34;108235;1246;106291;-88
2023/06/25 06:01:38;;;;;;;14.30;12.20;;;;;;;15.47;87.11;97541.23;108139;1248;97744;-79
2023/06/25 06:04:05;;;;;;;13.90;11.70;;;;;;;15.50;87.00;97541.73;107644;1241;102112;-79
2023/06/25 06:06:32;;;;;;;15.00;12.50;;;;;;;15.53;87.14;97542.23;108134;1237;96528;-79
2023/06/25 06:08:58;;;;;;;18.30;11.90;;;;;;;15.57;87.35;97541.52;108035;1236;96550;-79
2023/06/25 06:11:24;;;;;;;14.70;12.10;;;;;;;15.64;87.37;97533.15;108082;1241;97789;-79
2023/06/25 06:13:51;;;;;;;15.40;11.50;;;;;;;15.72;87.14;97529.70;108117;1247;96555;-78
2023/06/25 06:16:17;;;;;;;19.60;12.10;;;;;;;15.79;87.16;97527.02;107958;1236;100516;-79
2023/06/25 06:18:43;;;;;;;14.70;12.20;;;;;;;15.83;87.24;97525.91;108036;1246;97825;-79
2023/06/25 06:21:10;;;;;;;13.70;12.20;;;;;;;15.90;87.36;97518.59;108043;1247;96548;-78
2023/06/25 06:23:36;;;;;;;18.00;12.30;;;;;;;15.98;87.37;97517.05;108163;1233;96567;-78
2023/06/25 06:26:02;;;;;;;16.20;12.00;;;;;;;16.05;87.19;97524.31;108017;1241;101235;-79
2023/06/25 06:28:29;;;;;;;15.10;12.10;;;;;;;16.10;86.84;97530.78;108165;1237;97790;-79
2023/06/25 06:30:55;;;;;;;14.00;12.10;;;;;;;16.15;87.07;97525.61;108206;1235;96509;-78
2023/06/25 06:33:22;;;;;;;13.50;11.70;;;;;;;16.23;87.33;97526.68;108068;1236;97084;-78
2023/06/25 06:35:48;;;;;;;14.60;11.70;;;;;;;16.32;87.37;97527.98;108079;1234;101140;-79
2023/06/25 06:38:14;;;;;;;13.50;10.80;;;;;;;16.39;87.08;97527.61;107978;1246;96564;-79
2023/06/25 06:40:40;;;;;;;14.10;12.00;;;;;;;16.44;86.87;97522.42;107940;1234;97145;-79
2023/06/25 06:43:07;;;;;;;13.50;11.40;;;;;;;16.52;86.75;97520.06;108157;1234;97457;-78
2023/06/25 06:45:33;;;;;;;12.90;11.40;;;;;;;16.59;86.75;97521.98;108057;1234;101310;-69
2023/06/25 06:48:00;;;;;;;14.20;11.70;;;;;;;16.64;86.71;97523.06;107757;1236;96649;-69
2023/06/25 06:50:26;;;;;;;15.30;11.20;;;;;;;16.70;86.31;97523.11;107848;1234;97443;-68
2023/06/25 06:52:53;;;;;;;12.00;10.80;;;;;;;16.78;86.04;97521.23;107951;1241;96713;-68
2023/06/25 06:55:19;;;;;;;15.10;11.60;;;;;;;16.88;86.00;97518.95;107849;1236;101352;-68
2023/06/25 06:57:46;;;;;;;15.50;12.40;;;;;;;16.98;85.71;97519.48;107889;1236;97078;-69
2023/06/25 07:00:15;;;;;;;14.10;11.30;;;;;;;17.07;85.66;97514.27;108162;1236;97725;-69
2023/06/25 07:02:42;;;;;;;13.70;11.60;;;;;;;17.17;85.45;97510.38;108161;1245;97015;-80
2023/06/25 07:05:08;;;;;;;15.70;12.00;;;;;;;17.25;85.32;97506.80;108039;1237;96614;-80
2023/06/25 07:07:35;;;;;;;19.50;12.90;;;;;;;17.33;85.13;97504.77;107954;1246;97810;-80
2023/06/25 07:10:01;;;;;;;16.10;12.40;;;;;;;17.42;85.16;97504.61;108035;1246;97346;-80
2023/06/25 07:12:27;;;;;;;17.90;12.80;;;;;;;17.47;84.93;97504.80;108144;1233;97476;-80
2023/06/25 07:14:54;;;;;;;18.10;11.80;;;;;;;17.53;84.61;97506.52;108932;1233;96647;-81
2023/06/25 07:17:20;;;;;;;14.40;11.60;;;;;;;17.60;84.52;97503.13;110710;1233;96999;-87
2023/06/25 07:19:47;;;;;;;18.70;12.20;;;;;;;17.69;84.71;97498.78;108284;1245;96499;-86
2023/06/25 07:22:13;;;;;;;15.10;12.50;;;;;;;17.81;84.98;97498.11;108123;1234;97084;-87
2023/06/25 07:24:40;;;;;;;13.80;11.90;;;;;;;17.89;84.30;97494.70;108073;1236;97161;-84
2023/06/25 07:27:06;;;;;;;15.80;11.50;;;;;;;17.95;83.81;97489.63;107442;1243;97990;-86
2023/06/25 07:29:33;;;;;;;17.50;11.90;;;;;;;18.03;83.43;97490.48;107635;1249;96794;-83
2023/06/25 07:31:59;;;;;;;18.70;12.60;;;;;;;18.15;83.94;97489.95;107479;1240;97425;-82
2023/06/25 07:34:25;;;;;;;15.00;13.00;;;;;;;18.28;84.33;97490.15;107449;1237;98092;-82
2023/06/25 07:36:52;;;;;;;14.40;11.90;;;;;;;18.39;84.44;97486.31;107601;1241;96755;-81
2023/06/25 07:39:29;;;;;;;15.20;11.40;;;;;;;18.54;84.49;97486.41;107875;1241;96792;-82
2023/06/25 07:41:57;;;;;;;14.90;11.80;;;;;;;18.65;83.72;97481.93;107804;1237;97281;-82
2023/06/25 07:44:24;;;;;;;19.10;11.80;;;;;;;18.76;83.54;97480.92;107584;1241;102068;-83
2023/06/25 07:46:51;;;;;;;15.40;11.30;;;;;;;18.90;83.24;97479.61;107500;1241;97862;-84
2023/06/25 07:49:18;;;;;;;13.10;11.70;;;;;;;19.01;82.90;97476.30;107636;1236;97334;-85
2023/06/25 07:51:46;;;;;;;14.80;11.40;;;;;;;19.18;83.24;97474.86;107713;1243;97843;-85
2023/06/25 07:54:12;;;;;;;13.10;11.30;;;;;;;19.34;83.04;97478.78;107750;1237;96632;-84
2023/06/25 07:56:40;;;;;;;14.50;11.40;;;;;;;19.50;82.51;97478.61;107650;1250;96647;-85
2023/06/25 07:59:07;;;;;;;14.20;10.60;;;;;;;19.66;81.84;97475.56;107810;1245;97773;-86
2023/06/25 08:01:34;;;;;;;15.60;10.80;;;;;;;19.84;81.30;97475.09;107913;1238;309128;-87
2023/06/25 08:04:00;;;;;;;14.00;10.80;;;;;;;20.12;81.05;97476.86;108441;1236;97670;-86
2023/06/25 08:06:27;;;;;;;12.20;10.90;;;;;;;20.47;80.18;97475.41;108220;1244;101142;-87
2023/06/25 08:08:53;;;;;;;11.30;9.50;;;;;;;20.84;78.99;97474.98;108283;1238;97108;-87
2023/06/25 08:11:20;;;;;;;12.00;9.50;;;;;;;21.22;78.39;97474.40;108265;1234;97488;-88
2023/06/25 08:13:46;;;;;;;14.40;9.70;;;;;;;21.65;78.24;97468.85;108224;1236;97138;-89
2023/06/25 08:16:12;;;;;;;11.50;9.40;;;;;;;21.98;77.32;97468.61;108217;1236;102054;-88
2023/06/25 08:18:39;;;;;;;11.00;9.10;;;;;;;22.22;76.13;97463.36;108363;1237;97773;-87
2023/06/25 08:21:05;;;;;;;11.10;9.10;;;;;;;22.62;75.16;97456.76;108226;1236;97307;-87
2023/06/25 08:23:31;;;;;;;10.10;8.40;;;;;;;23.03;74.45;97457.63;108389;1238;96560;-87
2023/06/25 08:25:58;;;;;;;11.90;8.90;;;;;;;23.42;73.87;97452.48;108207;1237;101679;-88
2023/06/25 08:28:24;;;;;;;11.40;9.30;;;;;;;23.79;72.58;97449.48;108376;1238;96772;-88
2023/06/25 08:30:50;;;;;;;9.50;7.80;;;;;;;24.06;71.59;97447.63;108312;1247;96538;-86
2023/06/25 08:33:17;;;;;;;9.70;8.50;;;;;;;24.43;71.44;97449.71;108275;1247;96786;-88
2023/06/25 08:35:43;;;;;;;9.70;7.50;;;;;;;24.76;70.93;97451.16;107552;1242;102296;-88
2023/06/25 08:38:10;;;;;;;8.90;7.40;;;;;;;25.03;69.83;97447.47;107710;1242;97666;-88
2023/06/25 08:40:40;;;;;;;11.20;7.80;;;;;;;25.26;68.49;97443.75;107675;1252;96853;-89
2023/06/25 08:43:07;;;;;;;7.50;6.70;;;;;;;25.56;67.56;97437.08;107493;1249;96725;-89
2023/06/25 08:45:33;;;;;;;7.90;7.00;;;;;;;25.87;66.63;97438.55;107642;1242;96633;-86
2023/06/25 08:48:03;;;;;;;7.90;7.00;;;;;;;26.03;65.89;97438.59;107752;1242;96733;-87
2023/06/25 08:50:30;;;;;;;8.70;7.40;;;;;;;26.15;64.74;97436.83;107474;1245;97141;-87
2023/06/25 08:52:57;;;;;;;8.70;6.80;;;;;;;26.23;64.13;97436.51;107547;1242;100057;-88
2023/06/25 08:55:26;;;;;;;6.90;6.20;;;;;;;26.49;63.78;97435.98;107660;1242;96690;-84
2023/06/25 08:57:53;;;;;;;8.00;7.20;;;;;;;26.75;62.74;97434.63;107566;1245;97088;-87
2023/06/25 09:00:19;;;;;;;7.40;6.50;;;;;;;26.57;61.65;97433.64;107640;1242;96777;-87
2023/06/25 09:02:46;;;;;;;9.40;6.50;;;;;;;26.42;61.28;97433.48;107609;1242;97422;-74
2023/06/25 09:05:13;;;;;;;9.60;7.20;;;;;;;26.40;60.91;97429.72;107724;1252;97456;-74
2023/06/25 09:07:45;;;;;;;9.50;6.40;;;;;;;26.29;60.93;97433.68;108013;1237;97302;-74
2023/06/25 09:10:11;;;;;;;8.10;7.20;;;;;;;26.56;60.71;97435.64;107782;1248;101108;-73
2023/06/25 09:12:38;;;;;;;8.60;6.70;;;;;;;26.75;59.75;97430.35;108208;1248;96615;-74
2023/06/25 09:15:06;;;;;;;12.40;6.90;;;;;;;26.66;59.36;97426.53;107577;1242;96741;-73
2023/06/25 09:17:32;;;;;;;11.10;6.60;;;;;;;26.39;59.22;97429.89;107660;1242;97126;-74
2023/06/25 09:20:06;;;;;;;7.70;6.90;;;;;;;25.96;59.36;97430.73;107720;1242;96651;-73
2023/06/25 09:22:33;;;;;;;8.50;6.40;;;;;;;25.84;60.17;97423.37;107688;1244;102269;-74
2023/06/25 09:25:00;;;;;;;7.00;6.40;;;;;;;25.71;59.64;97424.81;107527;1245;97570;-74
2023/06/25 09:27:26;;;;;;;7.40;6.50;;;;;;;25.44;58.53;97425.81;107583;1244;96737;-74
2023/06/25 09:29:56;;;;;;;9.00;7.00;;;;;;;25.10;59.16;97425.15;107678;1246;97746;-74
2023/06/25 09:32:23;;;;;;;7.00;6.30;;;;;;;24.72;59.64;97429.94;107307;1245;97900;-75
2023/06/25 09:34:49;;;;;;;9.30;6.80;;;;;;;24.35;59.61;97426.83;107421;1246;97204;-77
2023/06/25 09:37:15;;;;;;;8.60;6.20;;;;;;;24.17;59.42;97422.22;107311;1253;97572;-76
2023/06/25 09:39:42;;;;;;;6.70;6.00;;;;;;;24.08;59.36;97425.98;107266;1245;97787;-78
2023/06/25 09:42:09;;;;;;;8.90;6.20;;;;;;;23.93;59.59;97419.27;107292;1245;97003;-75
2023/06/25 09:44:38;;;;;;;8.60;6.10;;;;;;;23.81;59.89;97418.77;107345;1244;98001;-77
2023/06/25 09:47:07;;;;;;;9.50;6.30;;;;;;;24.16;59.86;97413.36;107509;1236;100386;-74
2023/06/25 09:49:34;;;;;;;7.30;6.10;;;;;;;24.61;59.45;97410.35;107564;1252;100206;-74
2023/06/25 09:52:09;;;;;;;7.30;6.20;;;;;;;24.69;59.21;97415.23;107583;1250;96996;-74
2023/06/25 09:54:40;;;;;;;7.40;6.10;;;;;;;24.58;58.77;97414.55;107724;1240;97356;-73
2023/06/25 09:57:10;;;;;;;7.60;5.70;;;;;;;24.40;58.01;97410.98;107780;1245;100752;-73
2023/06/25 09:59:37;;;;;;;9.20;6.00;;;;;;;24.24;58.03;97413.48;107343;1248;100020;-73
2023/06/25 10:02:06;;;;;;;9.70;6.20;;;;;;;23.93;57.86;97411.92;107025;1257;97675;-74
2023/06/25 10:04:34;;;;;;;8.10;6.70;;;;;;;23.68;58.46;97407.20;107085;1248;96598;-73
2023/06/25 10:07:02;;;;;;;8.70;6.70;;;;;;;23.43;58.64;97403.66;106935;1253;97336;-74
2023/06/25 10:09:28;;;;;;;9.10;6.50;;;;;;;23.44;59.81;97401.07;107404;1245;101241;-74
2023/06/25 10:11:57;;;;;;;7.30;6.10;;;;;;;23.85;60.41;97399.95;107523;1242;97401;-75
2023/06/25 10:14:24;;;;;;;8.40;5.80;;;;;;;24.43;59.79;97398.01;106921;1256;97815;-76
2023/06/25 10:16:55;;;;;;;6.70;5.90;;;;;;;24.92;58.72;97395.70;107888;1248;97521;-74
2023/06/25 10:19:23;;;;;;;7.60;5.80;;;;;;;25.38;58.09;97394.89;107397;1245;97798;-74
2023/06/25 10:22:07;;;;;;;6.90;5.40;;;;;;;25.74;56.38;97393.44;107342;1241;100976;-75
2023/06/25 10:24:46;;;;;;;6.20;5.70;;;;;;;26.19;55.07;97388.14;107467;1245;101353;-74
2023/06/25 10:27:25;;;;;;;6.30;5.70;;;;;;;26.51;54.60;97379.58;107516;1245;99721;-76
2023/06/25 10:29:55;;;;;;;7.70;5.70;;;;;;;26.83;54.41;97382.68;107439;1245;97824;-75
2023/06/25 10:32:23;;;;;;;6.20;5.60;;;;;;;27.16;53.32;97377.66;107650;1242;97997;-76
2023/06/25 10:34:54;;;;;;;7.40;5.30;;;;;;;27.39;52.92;97378.30;107634;1252;101072;-75
2023/06/25 10:37:21;;;;;;;6.00;5.00;;;;;;;27.65;53.14;97382.07;107777;1247;101271;-75
2023/06/25 10:39:48;;;;;;;7.20;6.00;;;;;;;27.80;52.04;97381.23;108209;1238;96962;-75
2023/06/25 10:42:14;;;;;;;6.30;5.40;;;;;;;27.99;51.17;97379.70;108151;1239;96535;-75
2023/06/25 10:44:40;;;;;;;8.10;5.20;;;;;;;28.24;51.13;97377.45;108165;1246;97323;-75
2023/06/25 10:47:10;;;;;;;6.80;5.90;;;;;;;28.28;51.03;97374.95;108418;1236;96999;-75
2023/06/25 10:49:37;;;;;;;5.50;4.80;;;;;;;28.08;50.71;97375.04;108242;1241;98498;-75
2023/06/25 10:52:05;;;;;;;7.50;5.30;;;;;;;28.10;50.68;97368.45;107767;1242;96780;-74
2023/06/25 10:54:32;;;;;;;5.70;5.10;;;;;;;28.10;50.43;97368.16;108323;1236;96608;-74
2023/06/25 10:57:06;;;;;;;6.70;5.40;;;;;;;28.16;50.20;97367.88;108250;1246;97811;-74
2023/06/25 10:59:33;;;;;;;7.00;5.30;;;;;;;28.40;49.00;97360.89;108290;1248;101203;-74
2023/06/25 11:02:29;;;;;;;6.20;5.30;;;;;;;28.30;48.53;97360.29;108204;1235;97457;-75
2023/06/25 11:04:58;;;;;;;6.10;5.50;;;;;;;28.19;49.00;97363.13;107407;1245;96726;-74
2023/06/25 11:07:25;;;;;;;6.10;5.40;;;;;;;28.23;49.24;97359.58;107119;1252;97107;-75
2023/06/25 11:09:55;;;;;;;9.00;5.40;;;;;;;28.25;49.21;97356.52;107393;1241;97538;-75
2023/06/25 11:12:22;;;;;;;6.70;4.70;;;;;;;28.42;47.85;97353.27;107549;1247;100243;-75
2023/06/25 11:14:48;;;;;;;6.10;5.40;;;;;;;28.67;47.30;97351.80;107244;1245;97823;-74